sensor_id;sensor_type;location;lat;lon;timestamp;P1;durP1;ratioP1;P2;durP2;ratioP2
71462;SDS011;59266;52.608;13.260;2022-09-20T00:01:12;6.63;;;1.95;;
71462;SDS011;59266;52.608;13.260;2022-09-20T00:03:41;9.23;;;2.42;;
71462;SDS011;59266;52.608;13.260;2022-09-20T00:06:10;5.80;;;2.10;;
71462;SDS011;59266;52.608;13.260;2022-09-20T00:08:39;11.35;;;2.10;;
71462;SDS011;59266;52.608;13.260;2022-09-20T00:11:07;16.27;;;2.95;;
71462;SDS011;59266;52.608;13.260;2022-09-20T00:13:37;6.75;;;2.25;;
71462;SDS011;59266;52.608;13.260;2022-09-20T00:16:05;7.45;;;1.95;;
71462;SDS011;59266;52.608;13.260;2022-09-20T00:18:33;8.40;;;2.10;;
71462;SDS011;59266;52.608;13.260;2022-09-20T00:21:00;9.40;;;2.10;;
71462;SDS011;59266;52.608;13.260;2022-09-20T00:23:28;10.35;;;2.60;;
71462;SDS011;59266;52.608;13.260;2022-09-20T00:25:56;8.23;;;1.90;;
71462;SDS011;59266;52.608;13.260;2022-09-20T00:28:24;7.90;;;2.08;;
71462;SDS011;59266;52.608;13.260;2022-09-20T00:30:51;12.10;;;2.47;;
71462;SDS011;59266;52.608;13.260;2022-09-20T00:33:19;8.50;;;2.60;;
71462;SDS011;59266;52.608;13.260;2022-09-20T00:35:46;8.32;;;2.33;;
71462;SDS011;59266;52.608;13.260;2022-09-20T00:38:12;16.35;;;2.22;;
71462;SDS011;59266;52.608;13.260;2022-09-20T00:40:40;8.43;;;2.20;;
71462;SDS011;59266;52.608;13.260;2022-09-20T00:43:17;7.60;;;2.13;;
71462;SDS011;59266;52.608;13.260;2022-09-20T00:46:00;73.90;;;3.58;;
71462;SDS011;59266;52.608;13.260;2022-09-20T00:48:28;5.32;;;1.85;;
71462;SDS011;59266;52.608;13.260;2022-09-20T00:50:57;7.55;;;2.03;;
71462;SDS011;59266;52.608;13.260;2022-09-20T00:53:32;92.07;;;5.32;;
71462;SDS011;59266;52.608;13.260;2022-09-20T00:56:06;8.00;;;2.40;;
71462;SDS011;59266;52.608;13.260;2022-09-20T00:58:58;10.57;;;2.47;;
71462;SDS011;59266;52.608;13.260;2022-09-20T01:01:36;6.75;;;2.10;;
71462;SDS011;59266;52.608;13.260;2022-09-20T01:04:03;9.07;;;2.30;;
71462;SDS011;59266;52.608;13.260;2022-09-20T01:06:31;8.02;;;2.42;;
71462;SDS011;59266;52.608;13.260;2022-09-20T01:08:59;6.82;;;2.15;;
71462;SDS011;59266;52.608;13.260;2022-09-20T01:11:29;9.77;;;2.50;;
71462;SDS011;59266;52.608;13.260;2022-09-20T01:13:56;87.50;;;5.10;;
71462;SDS011;59266;52.608;13.260;2022-09-20T01:16:23;12.00;;;2.72;;
71462;SDS011;59266;52.608;13.260;2022-09-20T01:18:51;8.38;;;2.40;;
71462;SDS011;59266;52.608;13.260;2022-09-20T01:21:18;8.00;;;2.67;;
71462;SDS011;59266;52.608;13.260;2022-09-20T01:32:22;7.43;;;2.55;;
71462;SDS011;59266;52.608;13.260;2022-09-20T01:34:56;9.57;;;2.42;;
71462;SDS011;59266;52.608;13.260;2022-09-20T01:37:26;7.50;;;2.42;;
71462;SDS011;59266;52.608;13.260;2022-09-20T01:42:41;6.82;;;2.17;;
71462;SDS011;59266;52.608;13.260;2022-09-20T01:45:29;8.50;;;2.40;;
71462;SDS011;59266;52.608;13.260;2022-09-20T01:51:11;7.88;;;2.10;;
71462;SDS011;59266;52.608;13.260;2022-09-20T01:54:00;8.73;;;2.15;;
71462;SDS011;59266;52.608;13.260;2022-09-20T01:56:50;6.10;;;2.10;;
71462;SDS011;59266;52.608;13.260;2022-09-20T02:05:38;8.23;;;2.78;;
71462;SDS011;59266;52.608;13.260;2022-09-20T02:08:21;8.35;;;2.75;;
71462;SDS011;59266;52.608;13.260;2022-09-20T02:11:08;9.63;;;2.55;;
71462;SDS011;59266;52.608;13.260;2022-09-20T02:16:29;7.68;;;2.60;;
71462;SDS011;59266;52.608;13.260;2022-09-20T02:24:44;6.93;;;2.78;;
71462;SDS011;59266;52.608;13.260;2022-09-20T02:27:30;8.48;;;3.05;;
71462;SDS011;59266;52.608;13.260;2022-09-20T02:30:22;9.23;;;2.50;;
71462;SDS011;59266;52.608;13.260;2022-09-20T02:52:42;7.95;;;2.40;;
71462;SDS011;59266;52.608;13.260;2022-09-20T02:55:17;7.25;;;2.45;;
71462;SDS011;59266;52.608;13.260;2022-09-20T03:01:33;7.40;;;2.67;;
71462;SDS011;59266;52.608;13.260;2022-09-20T03:04:24;7.15;;;2.42;;
71462;SDS011;59266;52.608;13.260;2022-09-20T03:07:19;7.47;;;2.05;;
71462;SDS011;59266;52.608;13.260;2022-09-20T03:12:57;7.53;;;2.60;;
71462;SDS011;59266;52.608;13.260;2022-09-20T03:16:01;7.43;;;2.55;;
71462;SDS011;59266;52.608;13.260;2022-09-20T03:22:00;7.00;;;2.50;;
71462;SDS011;59266;52.608;13.260;2022-09-20T03:24:53;8.73;;;2.67;;
71462;SDS011;59266;52.608;13.260;2022-09-20T03:27:30;6.93;;;2.53;;
71462;SDS011;59266;52.608;13.260;2022-09-20T03:30:12;7.18;;;2.70;;
71462;SDS011;59266;52.608;13.260;2022-09-20T03:33:00;7.53;;;2.80;;
71462;SDS011;59266;52.608;13.260;2022-09-20T03:35:59;7.72;;;2.33;;
71462;SDS011;59266;52.608;13.260;2022-09-20T03:38:33;8.50;;;2.65;;
71462;SDS011;59266;52.608;13.260;2022-09-20T03:43:53;7.28;;;2.38;;
71462;SDS011;59266;52.608;13.260;2022-09-20T03:46:45;7.68;;;2.50;;
71462;SDS011;59266;52.608;13.260;2022-09-20T03:51:58;7.30;;;2.63;;
71462;SDS011;59266;52.608;13.260;2022-09-20T03:54:49;9.13;;;2.60;;
71462;SDS011;59266;52.608;13.260;2022-09-20T04:08:22;5.32;;;1.92;;
71462;SDS011;59266;52.608;13.260;2022-09-20T04:11:13;6.78;;;2.15;;
71462;SDS011;59266;52.608;13.260;2022-09-20T04:16:59;6.60;;;1.90;;
71462;SDS011;59266;52.608;13.260;2022-09-20T04:19:33;7.63;;;2.22;;
71462;SDS011;59266;52.608;13.260;2022-09-20T04:22:06;9.00;;;2.20;;
71462;SDS011;59266;52.608;13.260;2022-09-20T04:24:39;13.27;;;2.13;;
71462;SDS011;59266;52.608;13.260;2022-09-20T04:32:43;9.40;;;2.15;;
71462;SDS011;59266;52.608;13.260;2022-09-20T04:38:29;6.05;;;1.80;;
71462;SDS011;59266;52.608;13.260;2022-09-20T04:41:17;8.48;;;2.10;;
71462;SDS011;59266;52.608;13.260;2022-09-20T04:47:22;6.03;;;1.90;;
71462;SDS011;59266;52.608;13.260;2022-09-20T04:50:19;6.22;;;2.22;;
71462;SDS011;59266;52.608;13.260;2022-09-20T04:58:45;8.18;;;2.10;;
71462;SDS011;59266;52.608;13.260;2022-09-20T05:04:02;8.00;;;2.17;;
71462;SDS011;59266;52.608;13.260;2022-09-20T05:12:40;6.10;;;2.10;;
71462;SDS011;59266;52.608;13.260;2022-09-20T05:27:01;6.78;;;2.28;;
71462;SDS011;59266;52.608;13.260;2022-09-20T05:29:49;10.85;;;2.67;;
71462;SDS011;59266;52.608;13.260;2022-09-20T05:32:43;6.18;;;2.05;;
71462;SDS011;59266;52.608;13.260;2022-09-20T05:35:18;5.35;;;1.88;;
71462;SDS011;59266;52.608;13.260;2022-09-20T05:40:45;6.30;;;2.20;;
71462;SDS011;59266;52.608;13.260;2022-09-20T05:43:32;7.65;;;2.30;;
71462;SDS011;59266;52.608;13.260;2022-09-20T05:46:13;8.40;;;1.90;;
71462;SDS011;59266;52.608;13.260;2022-09-20T05:49:57;7.07;;;1.83;;
71462;SDS011;59266;52.608;13.260;2022-09-20T05:52:17;8.75;;;2.17;;
71462;SDS011;59266;52.608;13.260;2022-09-20T05:55:13;7.95;;;2.22;;
71462;SDS011;59266;52.608;13.260;2022-09-20T06:12:07;8.38;;;2.22;;
71462;SDS011;59266;52.608;13.260;2022-09-20T06:14:45;6.90;;;2.15;;
71462;SDS011;59266;52.608;13.260;2022-09-20T06:17:24;7.70;;;2.30;;
71462;SDS011;59266;52.608;13.260;2022-09-20T06:22:57;8.93;;;2.15;;
71462;SDS011;59266;52.608;13.260;2022-09-20T06:25:46;9.15;;;2.55;;
71462;SDS011;59266;52.608;13.260;2022-09-20T06:28:29;9.85;;;2.42;;
71462;SDS011;59266;52.608;13.260;2022-09-20T06:30:59;9.30;;;2.67;;
71462;SDS011;59266;52.608;13.260;2022-09-20T06:33:27;8.45;;;2.38;;
71462;SDS011;59266;52.608;13.260;2022-09-20T06:42:03;7.82;;;2.20;;
71462;SDS011;59266;52.608;13.260;2022-09-20T06:44:31;6.20;;;1.80;;
71462;SDS011;59266;52.608;13.260;2022-09-20T06:46:58;7.55;;;2.20;;
71462;SDS011;59266;52.608;13.260;2022-09-20T06:49:25;6.00;;;2.20;;
71462;SDS011;59266;52.608;13.260;2022-09-20T06:51:53;8.18;;;2.13;;
71462;SDS011;59266;52.608;13.260;2022-09-20T06:54:21;7.68;;;2.17;;
71462;SDS011;59266;52.608;13.260;2022-09-20T06:56:48;7.35;;;2.10;;
71462;SDS011;59266;52.608;13.260;2022-09-20T06:59:17;4.88;;;1.67;;
71462;SDS011;59266;52.608;13.260;2022-09-20T07:01:43;8.05;;;1.70;;
71462;SDS011;59266;52.608;13.260;2022-09-20T07:04:10;6.47;;;2.00;;
71462;SDS011;59266;52.608;13.260;2022-09-20T07:06:36;4.95;;;1.75;;
71462;SDS011;59266;52.608;13.260;2022-09-20T07:09:03;6.05;;;1.90;;
71462;SDS011;59266;52.608;13.260;2022-09-20T07:11:30;4.65;;;1.55;;
71462;SDS011;59266;52.608;13.260;2022-09-20T07:14:01;5.95;;;1.60;;
71462;SDS011;59266;52.608;13.260;2022-09-20T07:16:28;4.18;;;1.33;;
71462;SDS011;59266;52.608;13.260;2022-09-20T07:18:55;6.80;;;1.33;;
71462;SDS011;59266;52.608;13.260;2022-09-20T07:21:22;4.53;;;1.55;;
71462;SDS011;59266;52.608;13.260;2022-09-20T07:23:52;2.85;;;1.10;;
71462;SDS011;59266;52.608;13.260;2022-09-20T07:26:58;6.63;;;1.40;;
71462;SDS011;59266;52.608;13.260;2022-09-20T07:29:27;5.20;;;1.60;;
71462;SDS011;59266;52.608;13.260;2022-09-20T07:31:54;5.45;;;1.30;;
71462;SDS011;59266;52.608;13.260;2022-09-20T07:34:21;5.30;;;1.50;;
71462;SDS011;59266;52.608;13.260;2022-09-20T07:36:50;3.95;;;1.20;;
71462;SDS011;59266;52.608;13.260;2022-09-20T07:39:25;4.30;;;1.20;;
71462;SDS011;59266;52.608;13.260;2022-09-20T07:45:00;2.70;;;1.08;;
71462;SDS011;59266;52.608;13.260;2022-09-20T07:47:28;7.15;;;1.38;;
71462;SDS011;59266;52.608;13.260;2022-09-20T07:49:57;5.55;;;1.23;;
71462;SDS011;59266;52.608;13.260;2022-09-20T07:52:23;4.80;;;1.20;;
71462;SDS011;59266;52.608;13.260;2022-09-20T07:54:50;4.15;;;1.13;;
71462;SDS011;59266;52.608;13.260;2022-09-20T07:57:16;3.38;;;1.20;;
71462;SDS011;59266;52.608;13.260;2022-09-20T07:59:43;2.83;;;0.95;;
71462;SDS011;59266;52.608;13.260;2022-09-20T08:02:13;4.78;;;1.10;;
71462;SDS011;59266;52.608;13.260;2022-09-20T08:04:40;3.55;;;1.20;;
71462;SDS011;59266;52.608;13.260;2022-09-20T08:07:07;4.90;;;1.20;;
71462;SDS011;59266;52.608;13.260;2022-09-20T08:09:34;4.15;;;1.10;;
71462;SDS011;59266;52.608;13.260;2022-09-20T08:12:01;4.03;;;1.25;;
71462;SDS011;59266;52.608;13.260;2022-09-20T08:14:48;3.10;;;1.10;;
71462;SDS011;59266;52.608;13.260;2022-09-20T08:17:15;5.45;;;1.30;;
71462;SDS011;59266;52.608;13.260;2022-09-20T08:22:11;2.92;;;1.20;;
71462;SDS011;59266;52.608;13.260;2022-09-20T08:24:38;4.38;;;1.30;;
71462;SDS011;59266;52.608;13.260;2022-09-20T08:27:04;3.50;;;1.10;;
71462;SDS011;59266;52.608;13.260;2022-09-20T08:29:31;2.95;;;1.10;;
71462;SDS011;59266;52.608;13.260;2022-09-20T08:31:58;4.28;;;1.23;;
71462;SDS011;59266;52.608;13.260;2022-09-20T08:34:26;4.20;;;1.23;;
71462;SDS011;59266;52.608;13.260;2022-09-20T08:36:53;4.50;;;1.00;;
71462;SDS011;59266;52.608;13.260;2022-09-20T08:39:21;3.92;;;1.17;;
71462;SDS011;59266;52.608;13.260;2022-09-20T08:42:27;5.45;;;1.10;;
71462;SDS011;59266;52.608;13.260;2022-09-20T08:45:04;3.63;;;1.20;;
71462;SDS011;59266;52.608;13.260;2022-09-20T08:47:58;3.13;;;1.25;;
71462;SDS011;59266;52.608;13.260;2022-09-20T08:50:27;5.72;;;1.42;;
71462;SDS011;59266;52.608;13.260;2022-09-20T08:52:54;4.18;;;1.20;;
71462;SDS011;59266;52.608;13.260;2022-09-20T08:55:26;4.90;;;1.30;;
71462;SDS011;59266;52.608;13.260;2022-09-20T08:58:01;4.53;;;1.40;;
71462;SDS011;59266;52.608;13.260;2022-09-20T09:00:34;4.90;;;1.20;;
71462;SDS011;59266;52.608;13.260;2022-09-20T09:03:03;4.63;;;1.58;;
71462;SDS011;59266;52.608;13.260;2022-09-20T09:08:23;3.58;;;1.23;;
71462;SDS011;59266;52.608;13.260;2022-09-20T09:10:54;6.22;;;1.60;;
71462;SDS011;59266;52.608;13.260;2022-09-20T09:13:43;7.43;;;1.70;;
71462;SDS011;59266;52.608;13.260;2022-09-20T09:18:53;5.07;;;1.60;;
71462;SDS011;59266;52.608;13.260;2022-09-20T09:21:26;4.90;;;1.55;;
71462;SDS011;59266;52.608;13.260;2022-09-20T09:24:00;3.67;;;1.40;;
71462;SDS011;59266;52.608;13.260;2022-09-20T09:26:36;4.55;;;1.42;;
71462;SDS011;59266;52.608;13.260;2022-09-20T09:29:06;6.13;;;1.67;;
71462;SDS011;59266;52.608;13.260;2022-09-20T09:31:44;5.13;;;1.55;;
71462;SDS011;59266;52.608;13.260;2022-09-20T09:34:21;5.85;;;1.38;;
71462;SDS011;59266;52.608;13.260;2022-09-20T09:36:55;4.78;;;1.80;;
71462;SDS011;59266;52.608;13.260;2022-09-20T09:41:55;5.72;;;1.77;;
71462;SDS011;59266;52.608;13.260;2022-09-20T09:44:23;6.30;;;1.88;;
71462;SDS011;59266;52.608;13.260;2022-09-20T09:46:53;5.72;;;1.88;;
71462;SDS011;59266;52.608;13.260;2022-09-20T09:49:22;7.65;;;2.33;;
71462;SDS011;59266;52.608;13.260;2022-09-20T09:52:03;4.95;;;1.83;;
71462;SDS011;59266;52.608;13.260;2022-09-20T10:00:12;10.43;;;1.88;;
71462;SDS011;59266;52.608;13.260;2022-09-20T10:02:57;7.75;;;1.80;;
71462;SDS011;59266;52.608;13.260;2022-09-20T10:05:42;5.63;;;1.90;;
71462;SDS011;59266;52.608;13.260;2022-09-20T10:08:35;4.40;;;1.52;;
71462;SDS011;59266;52.608;13.260;2022-09-20T10:16:33;6.50;;;1.85;;
71462;SDS011;59266;52.608;13.260;2022-09-20T10:24:49;9.05;;;2.40;;
71462;SDS011;59266;52.608;13.260;2022-09-20T10:30:06;6.57;;;2.30;;
71462;SDS011;59266;52.608;13.260;2022-09-20T10:35:45;5.07;;;1.90;;
71462;SDS011;59266;52.608;13.260;2022-09-20T10:38:25;6.32;;;2.03;;
71462;SDS011;59266;52.608;13.260;2022-09-20T10:44:13;6.10;;;2.40;;
71462;SDS011;59266;52.608;13.260;2022-09-20T10:46:56;5.68;;;1.83;;
71462;SDS011;59266;52.608;13.260;2022-09-20T10:49:34;8.63;;;1.95;;
71462;SDS011;59266;52.608;13.260;2022-09-20T10:55:07;8.68;;;2.08;;
71462;SDS011;59266;52.608;13.260;2022-09-20T10:58:20;9.35;;;2.20;;
71462;SDS011;59266;52.608;13.260;2022-09-20T11:03:54;9.25;;;2.70;;
71462;SDS011;59266;52.608;13.260;2022-09-20T11:06:48;5.63;;;1.67;;
71462;SDS011;59266;52.608;13.260;2022-09-20T11:09:35;4.65;;;1.48;;
71462;SDS011;59266;52.608;13.260;2022-09-20T11:14:48;2.75;;;1.00;;
71462;SDS011;59266;52.608;13.260;2022-09-20T11:17:22;6.00;;;1.27;;
71462;SDS011;59266;52.608;13.260;2022-09-20T11:20:02;5.47;;;1.10;;
71462;SDS011;59266;52.608;13.260;2022-09-20T11:22:39;3.25;;;0.90;;
71462;SDS011;59266;52.608;13.260;2022-09-20T11:25:28;7.35;;;1.40;;
71462;SDS011;59266;52.608;13.260;2022-09-20T11:28:17;6.30;;;1.30;;
71462;SDS011;59266;52.608;13.260;2022-09-20T11:31:01;4.80;;;1.55;;
71462;SDS011;59266;52.608;13.260;2022-09-20T11:33:34;6.35;;;1.52;;
71462;SDS011;59266;52.608;13.260;2022-09-20T11:36:08;5.82;;;1.30;;
71462;SDS011;59266;52.608;13.260;2022-09-20T11:38:42;8.38;;;1.65;;
71462;SDS011;59266;52.608;13.260;2022-09-20T11:41:20;4.65;;;1.60;;
71462;SDS011;59266;52.608;13.260;2022-09-20T11:43:53;7.50;;;3.17;;
71462;SDS011;59266;52.608;13.260;2022-09-20T11:46:29;11.00;;;3.05;;
71462;SDS011;59266;52.608;13.260;2022-09-20T11:57:33;7.90;;;2.83;;
71462;SDS011;59266;52.608;13.260;2022-09-20T12:00:00;6.18;;;2.10;;
71462;SDS011;59266;52.608;13.260;2022-09-20T12:02:48;5.43;;;1.83;;
71462;SDS011;59266;52.608;13.260;2022-09-20T12:08:03;5.40;;;1.80;;
71462;SDS011;59266;52.608;13.260;2022-09-20T12:10:36;6.95;;;2.08;;
71462;SDS011;59266;52.608;13.260;2022-09-20T12:13:17;5.40;;;2.05;;
71462;SDS011;59266;52.608;13.260;2022-09-20T12:15:55;7.07;;;2.53;;
71462;SDS011;59266;52.608;13.260;2022-09-20T12:21:04;7.22;;;2.53;;
71462;SDS011;59266;52.608;13.260;2022-09-20T12:23:45;8.82;;;2.85;;
71462;SDS011;59266;52.608;13.260;2022-09-20T12:28:44;6.60;;;2.00;;
71462;SDS011;59266;52.608;13.260;2022-09-20T12:33:58;8.18;;;2.00;;
71462;SDS011;59266;52.608;13.260;2022-09-20T12:36:37;5.80;;;2.03;;
71462;SDS011;59266;52.608;13.260;2022-09-20T12:41:51;4.10;;;1.10;;
71462;SDS011;59266;52.608;13.260;2022-09-20T12:44:36;1.95;;;0.70;;
71462;SDS011;59266;52.608;13.260;2022-09-20T12:47:22;2.42;;;0.82;;
71462;SDS011;59266;52.608;13.260;2022-09-20T12:49:52;3.38;;;0.80;;
71462;SDS011;59266;52.608;13.260;2022-09-20T12:58:22;4.18;;;0.68;;
71462;SDS011;59266;52.608;13.260;2022-09-20T13:08:41;3.00;;;1.00;;
71462;SDS011;59266;52.608;13.260;2022-09-20T13:11:24;3.25;;;1.08;;
71462;SDS011;59266;52.608;13.260;2022-09-20T13:13:56;4.80;;;1.60;;
71462;SDS011;59266;52.608;13.260;2022-09-20T13:16:35;5.60;;;1.40;;
71462;SDS011;59266;52.608;13.260;2022-09-20T13:19:20;6.45;;;1.50;;
71462;SDS011;59266;52.608;13.260;2022-09-20T13:24:41;2.83;;;1.00;;
71462;SDS011;59266;52.608;13.260;2022-09-20T13:32:46;4.18;;;1.38;;
71462;SDS011;59266;52.608;13.260;2022-09-20T13:35:16;5.75;;;1.20;;
71462;SDS011;59266;52.608;13.260;2022-09-20T13:37:45;3.65;;;1.17;;
71462;SDS011;59266;52.608;13.260;2022-09-20T13:40:24;3.00;;;0.85;;
71462;SDS011;59266;52.608;13.260;2022-09-20T13:42:57;2.10;;;0.80;;
71462;SDS011;59266;52.608;13.260;2022-09-20T13:45:46;2.13;;;0.70;;
71462;SDS011;59266;52.608;13.260;2022-09-20T13:48:18;2.03;;;0.80;;
71462;SDS011;59266;52.608;13.260;2022-09-20T13:50:49;1.40;;;0.70;;
71462;SDS011;59266;52.608;13.260;2022-09-20T13:53:20;1.83;;;0.70;;
71462;SDS011;59266;52.608;13.260;2022-09-20T13:56:19;3.75;;;0.80;;
71462;SDS011;59266;52.608;13.260;2022-09-20T13:58:49;3.97;;;0.93;;
71462;SDS011;59266;52.608;13.260;2022-09-20T14:04:01;1.38;;;0.52;;
71462;SDS011;59266;52.608;13.260;2022-09-20T14:06:30;1.95;;;0.75;;
71462;SDS011;59266;52.608;13.260;2022-09-20T14:08:58;1.80;;;0.73;;
71462;SDS011;59266;52.608;13.260;2022-09-20T14:11:29;2.20;;;0.73;;
71462;SDS011;59266;52.608;13.260;2022-09-20T14:13:58;6.05;;;1.00;;
71462;SDS011;59266;52.608;13.260;2022-09-20T14:16:33;4.05;;;1.00;;
71462;SDS011;59266;52.608;13.260;2022-09-20T14:21:33;3.45;;;1.10;;
71462;SDS011;59266;52.608;13.260;2022-09-20T14:29:45;2.55;;;0.52;;
71462;SDS011;59266;52.608;13.260;2022-09-20T14:34:57;3.28;;;0.60;;
71462;SDS011;59266;52.608;13.260;2022-09-20T14:40:02;1.75;;;0.60;;
71462;SDS011;59266;52.608;13.260;2022-09-20T14:42:54;0.85;;;0.40;;
71462;SDS011;59266;52.608;13.260;2022-09-20T14:45:30;2.15;;;0.35;;
71462;SDS011;59266;52.608;13.260;2022-09-20T14:55:53;2.25;;;0.40;;
71462;SDS011;59266;52.608;13.260;2022-09-20T14:58:19;2.25;;;0.70;;
71462;SDS011;59266;52.608;13.260;2022-09-20T15:03:48;4.50;;;1.30;;
71462;SDS011;59266;52.608;13.260;2022-09-20T15:06:16;7.40;;;3.13;;
71462;SDS011;59266;52.608;13.260;2022-09-20T15:08:42;3.05;;;0.90;;
71462;SDS011;59266;52.608;13.260;2022-09-20T15:11:12;4.63;;;1.10;;
71462;SDS011;59266;52.608;13.260;2022-09-20T15:13:40;4.47;;;0.95;;
71462;SDS011;59266;52.608;13.260;2022-09-20T15:16:07;2.92;;;0.52;;
71462;SDS011;59266;52.608;13.260;2022-09-20T15:18:34;1.83;;;0.50;;
71462;SDS011;59266;52.608;13.260;2022-09-20T15:21:04;2.45;;;0.40;;
71462;SDS011;59266;52.608;13.260;2022-09-20T15:23:33;1.75;;;0.30;;
71462;SDS011;59266;52.608;13.260;2022-09-20T15:26:00;0.70;;;0.28;;
71462;SDS011;59266;52.608;13.260;2022-09-20T15:28:27;0.52;;;0.32;;
71462;SDS011;59266;52.608;13.260;2022-09-20T15:30:54;1.17;;;0.50;;
71462;SDS011;59266;52.608;13.260;2022-09-20T15:33:22;2.15;;;0.70;;
71462;SDS011;59266;52.608;13.260;2022-09-20T15:35:49;1.88;;;0.60;;
71462;SDS011;59266;52.608;13.260;2022-09-20T15:38:16;1.40;;;0.40;;
71462;SDS011;59266;52.608;13.260;2022-09-20T15:40:44;1.05;;;0.30;;
71462;SDS011;59266;52.608;13.260;2022-09-20T15:43:14;2.95;;;0.30;;
71462;SDS011;59266;52.608;13.260;2022-09-20T15:48:19;4.00;;;0.85;;
71462;SDS011;59266;52.608;13.260;2022-09-20T15:53:23;6.85;;;2.33;;
71462;SDS011;59266;52.608;13.260;2022-09-20T15:55:50;8.35;;;3.17;;
71462;SDS011;59266;52.608;13.260;2022-09-20T15:58:17;12.98;;;5.93;;
71462;SDS011;59266;52.608;13.260;2022-09-20T16:00:43;7.00;;;1.40;;
71462;SDS011;59266;52.608;13.260;2022-09-20T16:03:10;3.53;;;1.17;;
71462;SDS011;59266;52.608;13.260;2022-09-20T16:05:37;5.45;;;1.38;;
71462;SDS011;59266;52.608;13.260;2022-09-20T16:08:04;4.88;;;1.38;;
71462;SDS011;59266;52.608;13.260;2022-09-20T16:10:30;6.97;;;2.00;;
71462;SDS011;59266;52.608;13.260;2022-09-20T16:12:57;5.05;;;1.20;;
71462;SDS011;59266;52.608;13.260;2022-09-20T16:15:24;3.03;;;1.05;;
71462;SDS011;59266;52.608;13.260;2022-09-20T16:17:50;3.63;;;0.90;;
71462;SDS011;59266;52.608;13.260;2022-09-20T16:20:35;18.58;;;1.58;;
71462;SDS011;59266;52.608;13.260;2022-09-20T16:23:01;4.68;;;1.20;;
71462;SDS011;59266;52.608;13.260;2022-09-20T16:25:29;2.97;;;1.15;;
71462;SDS011;59266;52.608;13.260;2022-09-20T16:27:56;4.07;;;1.33;;
71462;SDS011;59266;52.608;13.260;2022-09-20T16:30:23;4.18;;;1.10;;
71462;SDS011;59266;52.608;13.260;2022-09-20T16:32:49;3.58;;;1.13;;
71462;SDS011;59266;52.608;13.260;2022-09-20T16:35:16;3.40;;;1.25;;
71462;SDS011;59266;52.608;13.260;2022-09-20T16:37:43;5.00;;;1.92;;
71462;SDS011;59266;52.608;13.260;2022-09-20T16:40:09;5.43;;;2.28;;
71462;SDS011;59266;52.608;13.260;2022-09-20T16:42:40;7.70;;;2.47;;
71462;SDS011;59266;52.608;13.260;2022-09-20T16:45:07;2.65;;;0.80;;
71462;SDS011;59266;52.608;13.260;2022-09-20T16:47:34;2.97;;;0.68;;
71462;SDS011;59266;52.608;13.260;2022-09-20T16:50:06;3.25;;;0.70;;
71462;SDS011;59266;52.608;13.260;2022-09-20T16:52:33;2.53;;;0.63;;
71462;SDS011;59266;52.608;13.260;2022-09-20T16:54:59;2.92;;;0.70;;
71462;SDS011;59266;52.608;13.260;2022-09-20T16:57:30;10.40;;;2.67;;
71462;SDS011;59266;52.608;13.260;2022-09-20T16:59:57;3.53;;;1.00;;
71462;SDS011;59266;52.608;13.260;2022-09-20T17:02:23;3.65;;;1.20;;
71462;SDS011;59266;52.608;13.260;2022-09-20T17:04:50;7.85;;;3.60;;
71462;SDS011;59266;52.608;13.260;2022-09-20T17:07:17;6.35;;;1.90;;
71462;SDS011;59266;52.608;13.260;2022-09-20T17:09:43;8.93;;;3.90;;
71462;SDS011;59266;52.608;13.260;2022-09-20T17:12:10;3.17;;;0.98;;
71462;SDS011;59266;52.608;13.260;2022-09-20T17:14:38;2.20;;;0.80;;
71462;SDS011;59266;52.608;13.260;2022-09-20T17:17:05;2.50;;;0.88;;
71462;SDS011;59266;52.608;13.260;2022-09-20T17:19:31;2.80;;;0.80;;
71462;SDS011;59266;52.608;13.260;2022-09-20T17:21:58;3.35;;;1.05;;
71462;SDS011;59266;52.608;13.260;2022-09-20T17:24:26;3.42;;;0.90;;
71462;SDS011;59266;52.608;13.260;2022-09-20T17:26:55;2.88;;;0.90;;
71462;SDS011;59266;52.608;13.260;2022-09-20T17:29:21;3.60;;;1.10;;
71462;SDS011;59266;52.608;13.260;2022-09-20T17:31:49;5.05;;;1.20;;
71462;SDS011;59266;52.608;13.260;2022-09-20T17:34:22;6.13;;;2.10;;
71462;SDS011;59266;52.608;13.260;2022-09-20T17:36:50;5.88;;;1.67;;
71462;SDS011;59266;52.608;13.260;2022-09-20T17:39:17;4.78;;;1.25;;
71462;SDS011;59266;52.608;13.260;2022-09-20T17:41:45;5.65;;;1.30;;
71462;SDS011;59266;52.608;13.260;2022-09-20T17:44:13;5.18;;;1.30;;
71462;SDS011;59266;52.608;13.260;2022-09-20T17:46:41;4.25;;;1.42;;
71462;SDS011;59266;52.608;13.260;2022-09-20T17:49:09;8.35;;;4.47;;
71462;SDS011;59266;52.608;13.260;2022-09-20T17:54:14;4.97;;;1.90;;
71462;SDS011;59266;52.608;13.260;2022-09-20T17:56:41;3.47;;;1.33;;
71462;SDS011;59266;52.608;13.260;2022-09-20T17:59:09;5.60;;;1.30;;
71462;SDS011;59266;52.608;13.260;2022-09-20T18:01:37;6.55;;;1.50;;
71462;SDS011;59266;52.608;13.260;2022-09-20T18:04:04;6.05;;;2.30;;
71462;SDS011;59266;52.608;13.260;2022-09-20T18:06:36;13.25;;;3.80;;
71462;SDS011;59266;52.608;13.260;2022-09-20T18:09:05;8.02;;;2.65;;
71462;SDS011;59266;52.608;13.260;2022-09-20T18:11:40;7.40;;;2.72;;
71462;SDS011;59266;52.608;13.260;2022-09-20T18:14:14;6.60;;;2.75;;
71462;SDS011;59266;52.608;13.260;2022-09-20T18:16:41;10.70;;;3.13;;
71462;SDS011;59266;52.608;13.260;2022-09-20T18:19:11;7.97;;;3.22;;
71462;SDS011;59266;52.608;13.260;2022-09-20T18:21:40;8.63;;;3.38;;
71462;SDS011;59266;52.608;13.260;2022-09-20T18:24:08;9.25;;;3.78;;
71462;SDS011;59266;52.608;13.260;2022-09-20T18:26:36;10.07;;;4.20;;
71462;SDS011;59266;52.608;13.260;2022-09-20T18:29:13;10.07;;;4.03;;
71462;SDS011;59266;52.608;13.260;2022-09-20T18:31:46;10.52;;;4.30;;
71462;SDS011;59266;52.608;13.260;2022-09-20T18:34:19;10.48;;;5.20;;
71462;SDS011;59266;52.608;13.260;2022-09-20T18:36:51;9.80;;;4.47;;
71462;SDS011;59266;52.608;13.260;2022-09-20T18:39:23;9.02;;;4.70;;
71462;SDS011;59266;52.608;13.260;2022-09-20T18:41:54;11.57;;;5.53;;
71462;SDS011;59266;52.608;13.260;2022-09-20T18:44:21;9.95;;;4.88;;
71462;SDS011;59266;52.608;13.260;2022-09-20T18:46:48;13.55;;;5.15;;
71462;SDS011;59266;52.608;13.260;2022-09-20T18:49:20;12.13;;;4.57;;
71462;SDS011;59266;52.608;13.260;2022-09-20T18:51:47;11.50;;;5.13;;
71462;SDS011;59266;52.608;13.260;2022-09-20T18:54:14;11.52;;;5.95;;
71462;SDS011;59266;52.608;13.260;2022-09-20T18:56:41;12.95;;;7.05;;
71462;SDS011;59266;52.608;13.260;2022-09-20T18:59:16;12.35;;;5.97;;
71462;SDS011;59266;52.608;13.260;2022-09-20T19:01:56;11.98;;;6.80;;
71462;SDS011;59266;52.608;13.260;2022-09-20T19:07:24;11.48;;;5.28;;
71462;SDS011;59266;52.608;13.260;2022-09-20T19:10:19;9.95;;;5.10;;
71462;SDS011;59266;52.608;13.260;2022-09-20T19:15:23;10.10;;;4.95;;
71462;SDS011;59266;52.608;13.260;2022-09-20T19:18:25;11.38;;;5.65;;
71462;SDS011;59266;52.608;13.260;2022-09-20T19:24:00;10.35;;;5.03;;
71462;SDS011;59266;52.608;13.260;2022-09-20T19:26:38;13.73;;;5.90;;
71462;SDS011;59266;52.608;13.260;2022-09-20T19:29:24;11.23;;;5.85;;
71462;SDS011;59266;52.608;13.260;2022-09-20T19:31:54;12.15;;;6.50;;
71462;SDS011;59266;52.608;13.260;2022-09-20T19:34:23;13.48;;;6.88;;
71462;SDS011;59266;52.608;13.260;2022-09-20T19:50:43;14.00;;;5.75;;
71462;SDS011;59266;52.608;13.260;2022-09-20T19:53:12;13.02;;;6.00;;
71462;SDS011;59266;52.608;13.260;2022-09-20T19:55:41;14.55;;;6.68;;
71462;SDS011;59266;52.608;13.260;2022-09-20T19:58:11;14.05;;;7.05;;
71462;SDS011;59266;52.608;13.260;2022-09-20T20:00:39;13.98;;;6.72;;
71462;SDS011;59266;52.608;13.260;2022-09-20T20:03:10;12.07;;;5.75;;